createdAt,value
2018-01-22T00:00:28.126Z,1.1
2018-01-22T00:12:26.259Z,1.0
2018-01-22T00:15:26.038Z,1.0
2018-01-22T00:30:26.281Z,1.0
2018-01-22T00:45:26.184Z,1.0
2018-01-22T00:58:26.280Z,1.1
2018-01-22T01:00:25.925Z,1.1
2018-01-22T01:09:26.249Z,1.0
2018-01-22T01:15:26.187Z,1.0
2018-01-22T01:19:25.901Z,1.1
2018-01-22T01:30:26.295Z,1.1
2018-01-22T01:45:26.196Z,1.1
2018-01-22T02:00:28.073Z,1.1
2018-01-22T02:15:26.247Z,1.1
2018-01-22T02:23:26.158Z,1.2
2018-01-22T02:30:26.226Z,1.2
2018-01-22T02:45:26.222Z,1.2
2018-01-22T02:56:26.197Z,1.1
2018-01-22T03:00:25.930Z,1.1
2018-01-22T03:15:26.233Z,1.1
2018-01-22T03:30:26.244Z,1.1
2018-01-22T03:45:26.182Z,1.1
2018-01-22T03:52:26.123Z,1.0
2018-01-22T03:56:25.990Z,1.1
2018-01-22T04:00:28.086Z,1.1
2018-01-22T04:15:26.253Z,1.1
2018-01-22T04:30:26.258Z,1.1
2018-01-22T04:38:26.213Z,1.2
2018-01-22T04:45:26.269Z,1.2
2018-01-22T04:49:25.921Z,1.1
2018-01-22T05:00:30.057Z,1.1
2018-01-22T05:03:25.923Z,1.2
2018-01-22T05:15:26.182Z,1.2
2018-01-22T05:26:26.147Z,1.3
2018-01-22T05:30:25.922Z,1.3
2018-01-22T05:45:26.181Z,1.3
2018-01-22T05:46:25.890Z,1.2
2018-01-22T05:53:26.143Z,1.3
2018-01-22T06:00:28.043Z,1.3
2018-01-22T06:15:26.036Z,1.3
2018-01-22T06:30:26.067Z,1.3
2018-01-22T06:42:26.029Z,1.2
2018-01-22T06:45:26.307Z,1.2
2018-01-22T07:00:26.080Z,1.2
2018-01-22T07:10:26.070Z,1.3
2018-01-22T07:15:26.088Z,1.3
2018-01-22T07:23:26.248Z,1.4
2018-01-22T07:30:26.096Z,1.4
2018-01-22T07:45:26.110Z,1.4
2018-01-22T08:00:26.104Z,1.4
2018-01-22T08:06:26.045Z,1.5
2018-01-22T08:15:26.044Z,1.5
2018-01-22T08:23:26.027Z,1.6
2018-01-22T08:30:26.033Z,1.6
2018-01-22T08:45:27.067Z,1.6
2018-01-22T08:55:26.045Z,1.7
2018-01-22T09:00:26.049Z,1.7
2018-01-22T09:11:26.024Z,1.8
2018-01-22T09:15:26.245Z,1.8
2018-01-22T09:30:26.038Z,1.8
2018-01-22T09:40:56.089Z,1.9
2018-01-22T09:45:26.026Z,1.9
2018-01-22T09:56:26.168Z,2.0
2018-01-22T10:00:26.048Z,2.0
2018-01-22T10:15:26.035Z,2.0
2018-01-22T10:30:26.067Z,2.0
2018-01-22T10:45:26.032Z,2.0
2018-01-22T10:49:26.035Z,2.1
2018-01-22T10:57:26.106Z,2.2
2018-01-22T11:00:26.030Z,2.2
2018-01-22T11:11:26.300Z,2.1
2018-01-22T11:15:26.017Z,2.1
2018-01-22T11:30:26.028Z,2.1
2018-01-22T11:39:26.223Z,2.0
2018-01-22T11:45:27.056Z,2.0
2018-01-22T11:50:26.022Z,1.9
2018-01-22T12:00:26.032Z,1.9
2018-01-22T12:06:27.086Z,2.0
2018-01-22T12:15:26.073Z,2.0
2018-01-22T12:30:26.053Z,2.0
2018-01-22T12:38:26.000Z,2.1
2018-01-22T12:45:26.022Z,2.1
2018-01-22T13:00:26.031Z,2.1
2018-01-22T13:15:26.007Z,2.1
2018-01-22T13:17:26.000Z,2.2
2018-01-22T13:25:26.027Z,2.1
2018-01-22T13:30:26.026Z,2.1
2018-01-22T13:45:26.052Z,2.1
2018-01-22T13:58:26.122Z,2.2
2018-01-22T14:00:26.066Z,2.2
2018-01-22T14:15:26.050Z,2.2
2018-01-22T14:30:26.013Z,2.2
2018-01-22T14:45:26.032Z,2.2
2018-01-22T15:00:31.021Z,2.2
2018-01-22T15:06:26.027Z,2.1
2018-01-22T15:15:26.029Z,2.1
2018-01-22T15:30:26.051Z,2.1
2018-01-22T15:31:26.020Z,2.2
2018-01-22T15:45:26.050Z,2.2
2018-01-22T15:57:26.004Z,2.1
2018-01-22T16:00:28.388Z,2.1
2018-01-22T16:15:26.014Z,2.1
2018-01-22T16:20:26.007Z,2.2
2018-01-22T16:30:26.299Z,2.2
2018-01-22T16:36:26.003Z,2.1
2018-01-22T16:45:26.006Z,2.1
2018-01-22T16:50:26.035Z,2.2
2018-01-22T17:00:28.241Z,2.2
2018-01-22T17:03:25.903Z,2.1
2018-01-22T17:15:26.137Z,2.0
2018-01-22T17:30:26.174Z,2.0
2018-01-22T17:45:26.179Z,2.0
2018-01-22T17:50:26.122Z,2.1
2018-01-22T18:00:28.235Z,2.1
2018-01-22T18:03:25.891Z,2.2
2018-01-22T18:15:26.159Z,2.2
2018-01-22T18:30:26.166Z,2.2
2018-01-22T18:45:26.164Z,2.2
2018-01-22T19:00:28.166Z,2.2
2018-01-22T19:01:25.886Z,2.3
2018-01-22T19:15:26.185Z,2.3
2018-01-22T19:27:26.268Z,2.2
2018-01-22T19:30:25.958Z,2.2
2018-01-22T19:45:27.223Z,2.2
2018-01-22T19:48:25.894Z,2.3
2018-01-22T20:00:28.184Z,2.3
2018-01-22T20:15:26.125Z,2.3
2018-01-22T20:30:27.229Z,2.3
2018-01-22T20:45:26.211Z,2.3
2018-01-22T20:52:26.093Z,2.2
2018-01-22T21:00:28.074Z,2.2
2018-01-22T21:03:25.923Z,2.1
2018-01-22T21:11:26.202Z,2.2
2018-01-22T21:15:25.993Z,2.2
2018-01-22T21:30:26.229Z,2.2
2018-01-22T21:45:26.243Z,2.2
2018-01-22T22:00:28.229Z,2.2
2018-01-22T22:15:26.150Z,2.2
2018-01-22T22:30:26.260Z,2.2
2018-01-22T22:45:26.157Z,2.2
2018-01-22T22:56:26.240Z,2.3
2018-01-22T23:00:25.918Z,2.3
2018-01-22T23:16:26.178Z,2.3
2018-01-22T23:30:26.169Z,2.3
2018-01-22T23:45:26.183Z,2.3
2018-01-22T23:51:26.135Z,2.2
